Time;durP1;ratioP1;P1;durP2;ratioP2;P2;SDS_P1;SDS_P2;PMS_P1;PMS_P2;Temp;Humidity;BMP_temperature;BMP_pressure;BME280_temperature;BME280_humidity;BME280_pressure;Samples;Min_cycle;Max_cycle;Signal;HPM_P1;HPM_P2
2023/10/18 00:00:57;;;;;;;;;9.00;9.00;;;;;;;;5030332;28;9857;-86
2023/10/18 00:03:29;;;;;;;;;7.00;7.00;;;;;;;;5030233;28;9940;-86
2023/10/18 00:05:56;;;;;;;;;7.75;6.00;;;;;;;;5043195;28;9913;-87
2023/10/18 00:08:27;;;;;;;;;6.00;6.00;;;;;;;;5030820;28;10033;-86
2023/10/18 00:10:55;;;;;;;;;6.75;6.75;;;;;;;;5030766;28;9772;-86
2023/10/18 00:13:23;;;;;;;;;7.00;7.00;;;;;;;;5032024;28;9918;-87
2023/10/18 00:15:52;;;;;;;;;6.75;6.75;;;;;;;;5037157;28;9795;-86
2023/10/18 00:18:20;;;;;;;;;6.75;6.75;;;;;;;;5034096;28;9895;-86
2023/10/18 00:20:51;;;;;;;;;6.75;6.75;;;;;;;;5030802;28;9865;-87
2023/10/18 00:23:19;;;;;;;;;7.00;7.00;;;;;;;;5030380;28;9899;-86
2023/10/18 00:25:46;;;;;;;;;6.75;6.00;;;;;;;;5030635;28;9987;-87
2023/10/18 00:28:13;;;;;;;;;6.75;6.75;;;;;;;;5029716;28;10803;-86
2023/10/18 00:30:41;;;;;;;;;11.00;6.75;;;;;;;;5031203;28;10001;-85
2023/10/18 00:33:09;;;;;;;;;6.25;5.75;;;;;;;;5035116;28;10743;-86
2023/10/18 00:35:36;;;;;;;;;6.25;6.25;;;;;;;;5033167;28;10037;-86
2023/10/18 00:38:08;;;;;;;;;8.00;8.00;;;;;;;;5029288;28;9868;-86
2023/10/18 00:40:36;;;;;;;;;5.75;5.75;;;;;;;;5034481;28;10033;-85
2023/10/18 00:43:04;;;;;;;;;7.25;7.25;;;;;;;;5033559;28;10094;-87
2023/10/18 00:45:32;;;;;;;;;7.50;7.00;;;;;;;;5030834;28;10895;-87
2023/10/18 00:48:05;;;;;;;;;8.00;7.00;;;;;;;;5030435;28;10188;-86
2023/10/18 00:50:37;;;;;;;;;7.50;7.00;;;;;;;;5018646;28;10099;-86
2023/10/18 00:53:06;;;;;;;;;7.25;7.00;;;;;;;;5042339;28;10104;-86
2023/10/18 00:55:33;;;;;;;;;9.75;7.75;;;;;;;;5029764;28;10177;-86
2023/10/18 00:58:04;;;;;;;;;7.75;6.50;;;;;;;;5030134;28;10567;-86
2023/10/18 01:00:37;;;;;;;;;7.75;7.75;;;;;;;;5029931;28;10779;-85
2023/10/18 01:03:09;;;;;;;;;7.25;7.25;;;;;;;;5032291;28;10104;-84
2023/10/18 01:05:36;;;;;;;;;7.50;7.50;;;;;;;;5019717;28;11021;-85
2023/10/18 01:08:10;;;;;;;;;7.00;7.00;;;;;;;;5046074;28;10100;-85
2023/10/18 01:10:38;;;;;;;;;9.50;8.00;;;;;;;;5030183;28;10195;-85
2023/10/18 01:13:09;;;;;;;;;7.50;7.50;;;;;;;;5029551;28;10925;-85
2023/10/18 01:15:36;;;;;;;;;4.50;4.50;;;;;;;;5029950;28;11010;-86
2023/10/18 01:18:06;;;;;;;;;10.00;6.75;;;;;;;;5030201;28;10270;-85
2023/10/18 01:20:39;;;;;;;;;7.25;5.50;;;;;;;;5029666;28;10187;-83
2023/10/18 01:23:09;;;;;;;;;7.00;7.00;;;;;;;;5029747;28;10404;-84
2023/10/18 01:25:38;;;;;;;;;8.50;6.00;;;;;;;;5034270;28;10422;-85
2023/10/18 01:28:06;;;;;;;;;6.00;6.00;;;;;;;;5038228;28;10334;-85
2023/10/18 01:30:34;;;;;;;;;10.50;7.75;;;;;;;;5043909;28;10165;-86
2023/10/18 01:33:04;;;;;;;;;6.75;6.75;;;;;;;;5032625;28;10515;-86
2023/10/18 01:35:32;;;;;;;;;7.00;7.00;;;;;;;;5032817;28;10344;-86
2023/10/18 01:38:04;;;;;;;;;7.00;7.00;;;;;;;;5032645;28;10376;-85
2023/10/18 01:40:41;;;;;;;;;5.00;5.00;;;;;;;;5041015;28;10408;-86
2023/10/18 01:43:11;;;;;;;;;3.00;3.00;;;;;;;;5033295;28;10319;-86
2023/10/18 01:45:39;;;;;;;;;12.25;9.50;;;;;;;;5028436;28;10451;-87
2023/10/18 01:48:09;;;;;;;;;9.50;9.50;;;;;;;;5028879;28;10424;-86
2023/10/18 01:50:38;;;;;;;;;5.25;5.25;;;;;;;;5039303;28;10494;-87
2023/10/18 01:53:15;;;;;;;;;8.50;8.25;;;;;;;;5031101;28;10240;-86
2023/10/18 01:55:45;;;;;;;;;8.25;8.25;;;;;;;;5029224;28;10649;-87
2023/10/18 01:58:14;;;;;;;;;10.00;10.00;;;;;;;;5030329;28;10373;-85
2023/10/18 02:00:45;;;;;;;;;6.00;6.00;;;;;;;;5034198;28;10437;-86
2023/10/18 02:03:14;;;;;;;;;9.00;9.00;;;;;;;;5017232;28;10394;-86
2023/10/18 02:05:43;;;;;;;;;6.25;6.25;;;;;;;;5028939;28;10474;-87
2023/10/18 02:08:11;;;;;;;;;12.25;11.00;;;;;;;;5028225;28;10544;-86
2023/10/18 02:10:42;;;;;;;;;11.00;9.25;;;;;;;;5027600;28;10493;-87
2023/10/18 02:13:10;;;;;;;;;11.00;11.00;;;;;;;;5029566;28;10665;-86
2023/10/18 02:15:41;;;;;;;;;10.00;8.25;;;;;;;;5030129;28;10539;-86
2023/10/18 02:18:08;;;;;;;;;9.00;8.25;;;;;;;;5042358;28;10479;-86
2023/10/18 02:20:37;;;;;;;;;10.00;8.75;;;;;;;;5032635;28;10559;-87
2023/10/18 02:23:10;;;;;;;;;9.00;9.00;;;;;;;;5032901;28;10608;-87
2023/10/18 02:25:43;;;;;;;;;11.75;11.75;;;;;;;;5037342;28;10563;-86
2023/10/18 02:28:22;;;;;;;;;7.75;7.75;;;;;;;;5035253;28;10590;-86
2023/10/18 02:30:55;;;;;;;;;10.00;10.00;;;;;;;;5031483;28;10601;-88
2023/10/18 02:33:36;;;;;;;;;13.75;10.75;;;;;;;;5032332;28;10593;-86
2023/10/18 02:36:07;;;;;;;;;6.75;6.75;;;;;;;;5042294;28;10491;-86
2023/10/18 02:38:34;;;;;;;;;10.00;10.00;;;;;;;;5033623;28;10456;-87
2023/10/18 02:41:14;;;;;;;;;9.50;9.50;;;;;;;;5043371;28;10572;-87
2023/10/18 02:43:45;;;;;;;;;9.50;9.50;;;;;;;;5030671;28;10507;-88
2023/10/18 02:46:16;;;;;;;;;7.00;7.00;;;;;;;;5032300;28;10674;-87
2023/10/18 02:48:44;;;;;;;;;9.75;6.75;;;;;;;;5033170;28;10580;-87
2023/10/18 02:51:12;;;;;;;;;10.25;8.50;;;;;;;;5048514;28;10595;-88
2023/10/18 02:53:41;;;;;;;;;9.00;9.00;;;;;;;;5037420;28;10697;-87
2023/10/18 02:56:10;;;;;;;;;9.00;8.50;;;;;;;;5032855;28;10896;-84
2023/10/18 02:58:38;;;;;;;;;10.50;8.25;;;;;;;;5034665;28;10663;-87
2023/10/18 03:01:08;;;;;;;;;12.50;11.00;;;;;;;;5047856;28;10497;-86
2023/10/18 03:03:39;;;;;;;;;8.50;6.00;;;;;;;;5043789;28;10635;-85
2023/10/18 03:06:12;;;;;;;;;13.75;10.75;;;;;;;;5046867;28;10636;-86
2023/10/18 03:08:42;;;;;;;;;9.00;9.00;;;;;;;;5032152;28;10651;-86
2023/10/18 03:11:11;;;;;;;;;9.75;8.75;;;;;;;;5037634;28;10677;-86
2023/10/18 03:13:38;;;;;;;;;12.75;10.00;;;;;;;;5038899;28;10600;-86
2023/10/18 03:16:15;;;;;;;;;8.25;7.75;;;;;;;;5032550;28;10568;-86
2023/10/18 03:18:46;;;;;;;;;11.25;11.25;;;;;;;;5034447;28;10789;-85
2023/10/18 03:21:21;;;;;;;;;12.50;9.00;;;;;;;;5040720;28;10650;-84
2023/10/18 03:23:51;;;;;;;;;11.75;11.75;;;;;;;;5036613;28;10732;-84
2023/10/18 03:26:22;;;;;;;;;9.00;9.00;;;;;;;;5036715;28;11450;-85
2023/10/18 03:28:50;;;;;;;;;10.25;10.25;;;;;;;;5035968;28;10624;-84
2023/10/18 03:31:28;;;;;;;;;8.50;8.50;;;;;;;;5036636;28;10670;-86
2023/10/18 03:34:02;;;;;;;;;10.00;10.00;;;;;;;;5030436;28;10789;-85
2023/10/18 03:36:32;;;;;;;;;10.75;10.75;;;;;;;;5031260;28;10644;-86
2023/10/18 03:39:07;;;;;;;;;12.25;9.25;;;;;;;;5020586;28;10670;-85
2023/10/18 03:41:34;;;;;;;;;11.75;11.75;;;;;;;;5045645;28;10713;-86
2023/10/18 03:44:06;;;;;;;;;10.75;10.50;;;;;;;;5045086;28;10782;-85
2023/10/18 03:46:46;;;;;;;;;11.00;11.00;;;;;;;;5033836;28;10711;-86
2023/10/18 03:49:22;;;;;;;;;8.25;8.25;;;;;;;;5031153;28;10783;-87
2023/10/18 03:51:53;;;;;;;;;10.00;10.00;;;;;;;;5017527;28;10662;-87
2023/10/18 03:54:23;;;;;;;;;11.00;10.00;;;;;;;;5029857;28;10659;-86
2023/10/18 03:56:53;;;;;;;;;8.75;6.00;;;;;;;;5041916;28;10694;-86
2023/10/18 03:59:21;;;;;;;;;13.75;12.25;;;;;;;;5028820;28;10562;-86
2023/10/18 04:02:06;;;;;;;;;11.00;11.00;;;;;;;;5030040;28;10715;-86
2023/10/18 04:04:37;;;;;;;;;10.25;10.25;;;;;;;;5032352;28;10652;-87
2023/10/18 04:07:16;;;;;;;;;9.75;9.00;;;;;;;;5036583;28;11502;-88
2023/10/18 04:09:47;;;;;;;;;10.50;10.50;;;;;;;;5021566;28;10730;-86
2023/10/18 04:12:19;;;;;;;;;12.00;11.00;;;;;;;;5035702;28;10817;-85
2023/10/18 04:14:52;;;;;;;;;10.75;9.00;;;;;;;;5032550;28;10537;-87
2023/10/18 04:17:33;;;;;;;;;12.75;11.00;;;;;;;;5029497;28;10780;-89
2023/10/18 04:20:08;;;;;;;;;8.75;8.75;;;;;;;;5029704;28;10790;-86
2023/10/18 04:22:36;;;;;;;;;16.25;12.50;;;;;;;;5035947;28;10656;-85
2023/10/18 04:25:09;;;;;;;;;12.00;10.50;;;;;;;;5035621;28;10813;-85
2023/10/18 04:27:37;;;;;;;;;10.50;10.50;;;;;;;;5018576;28;10649;-85
2023/10/18 04:30:11;;;;;;;;;10.00;10.00;;;;;;;;5029154;28;10584;-85
2023/10/18 04:32:38;;;;;;;;;16.75;13.75;;;;;;;;5029470;28;10753;-86
2023/10/18 04:35:25;;;;;;;;;13.50;9.75;;;;;;;;5029312;28;10704;-87
2023/10/18 04:37:53;;;;;;;;;11.75;10.50;;;;;;;;5033733;28;10621;-85
2023/10/18 04:40:25;;;;;;;;;11.75;10.75;;;;;;;;5044351;28;10672;-85
2023/10/18 04:42:54;;;;;;;;;11.50;10.00;;;;;;;;5033786;28;10776;-84
2023/10/18 04:45:23;;;;;;;;;11.00;11.00;;;;;;;;5040466;28;10583;-83
2023/10/18 04:47:50;;;;;;;;;14.50;11.00;;;;;;;;5028943;28;10515;-85
2023/10/18 04:50:29;;;;;;;;;10.25;8.75;;;;;;;;5028410;28;10523;-85
2023/10/18 04:52:58;;;;;;;;;8.25;8.25;;;;;;;;5028819;28;10672;-83
2023/10/18 04:55:27;;;;;;;;;11.00;11.00;;;;;;;;5028379;28;10668;-84
2023/10/18 04:57:53;;;;;;;;;10.50;10.50;;;;;;;;5028141;28;11446;-85
2023/10/18 05:00:35;;;;;;;;;16.00;14.00;;;;;;;;5027527;28;10500;-84
2023/10/18 05:03:06;;;;;;;;;12.00;12.00;;;;;;;;5051073;28;10723;-84
2023/10/18 05:05:44;;;;;;;;;12.50;11.75;;;;;;;;5039713;28;11476;-84
2023/10/18 05:08:15;;;;;;;;;9.25;9.25;;;;;;;;5021969;28;10789;-83
2023/10/18 05:10:45;;;;;;;;;11.75;10.75;;;;;;;;5031886;28;10707;-83
2023/10/18 05:13:19;;;;;;;;;14.00;11.00;;;;;;;;5032954;28;10499;-83
2023/10/18 05:15:51;;;;;;;;;10.75;10.75;;;;;;;;5046544;28;10639;-84
2023/10/18 05:18:18;;;;;;;;;13.00;11.25;;;;;;;;5028692;28;10663;-79
2023/10/18 05:20:55;;;;;;;;;13.25;11.25;;;;;;;;5027669;28;10744;-79
2023/10/18 05:23:23;;;;;;;;;12.00;9.00;;;;;;;;5028162;28;10569;-77
2023/10/18 05:25:56;;;;;;;;;12.00;10.00;;;;;;;;5027735;28;10592;-80
2023/10/18 05:28:26;;;;;;;;;10.25;10.25;;;;;;;;5028578;28;10657;-77
2023/10/18 05:33:54;;;;;;;;;12.25;9.75;;;;;;;;5028008;28;10554;-76
2023/10/18 05:36:35;;;;;;;;;15.00;12.00;;;;;;;;5027955;28;10579;-81
2023/10/18 05:39:18;;;;;;;;;11.25;11.00;;;;;;;;5027534;28;10572;-78
2023/10/18 05:41:49;;;;;;;;;12.50;11.50;;;;;;;;5027179;28;10895;-76
2023/10/18 05:44:17;;;;;;;;;10.75;10.75;;;;;;;;5027869;28;10568;-78
2023/10/18 05:46:46;;;;;;;;;12.50;11.00;;;;;;;;5027401;28;10751;-77
2023/10/18 05:49:16;;;;;;;;;13.50;13.50;;;;;;;;5027211;28;10581;-77
2023/10/18 05:51:55;;;;;;;;;10.75;10.25;;;;;;;;5030956;28;10599;-78
2023/10/18 05:54:23;;;;;;;;;10.50;10.25;;;;;;;;5031850;28;11078;-77
2023/10/18 05:56:53;;;;;;;;;11.00;11.00;;;;;;;;5033238;28;10473;-76
2023/10/18 05:59:31;;;;;;;;;12.50;9.25;;;;;;;;5032608;28;10563;-77
2023/10/18 06:02:02;;;;;;;;;12.50;11.00;;;;;;;;5033304;28;10643;-83
2023/10/18 06:04:37;;;;;;;;;10.00;10.00;;;;;;;;5036115;28;10515;-80
2023/10/18 06:07:09;;;;;;;;;11.75;11.75;;;;;;;;5038963;28;10461;-81
2023/10/18 06:09:45;;;;;;;;;11.50;11.50;;;;;;;;5032608;28;10564;-79
2023/10/18 06:12:14;;;;;;;;;10.25;10.25;;;;;;;;5032684;28;11371;-82
2023/10/18 06:14:44;;;;;;;;;13.00;11.50;;;;;;;;5031744;28;10561;-80
2023/10/18 06:17:22;;;;;;;;;10.75;8.75;;;;;;;;5043103;28;10569;-79
2023/10/18 06:19:51;;;;;;;;;8.25;8.25;;;;;;;;5031078;28;10554;-79
2023/10/18 06:22:29;;;;;;;;;14.25;11.00;;;;;;;;5031853;28;10466;-81
2023/10/18 06:24:58;;;;;;;;;11.00;11.00;;;;;;;;5031297;28;10630;-79
2023/10/18 06:27:25;;;;;;;;;10.25;10.25;;;;;;;;5031261;28;11213;-79
2023/10/18 06:29:54;;;;;;;;;14.75;11.25;;;;;;;;5030943;28;10729;-79
2023/10/18 06:32:26;;;;;;;;;11.75;10.25;;;;;;;;5031003;28;10626;-81
2023/10/18 06:35:08;;;;;;;;;10.25;10.25;;;;;;;;5030472;28;10512;-79
2023/10/18 06:37:41;;;;;;;;;10.25;8.75;;;;;;;;5031599;28;10738;-80
2023/10/18 06:40:21;;;;;;;;;13.75;10.50;;;;;;;;5030526;28;10558;-78
2023/10/18 06:42:51;;;;;;;;;10.75;10.75;;;;;;;;5031366;28;11295;-77
2023/10/18 06:45:19;;;;;;;;;12.75;10.25;;;;;;;;5031049;28;10640;-77
2023/10/18 06:47:46;;;;;;;;;9.75;9.00;;;;;;;;5031265;28;10586;-76
2023/10/18 06:50:19;;;;;;;;;13.25;13.25;;;;;;;;5020327;28;10616;-76
2023/10/18 06:52:54;;;;;;;;;13.75;11.50;;;;;;;;5032546;28;10589;-76
2023/10/18 06:55:21;;;;;;;;;16.00;11.25;;;;;;;;5033798;28;10750;-77
2023/10/18 06:57:49;;;;;;;;;12.00;9.00;;;;;;;;5032721;28;10662;-76
2023/10/18 07:00:17;;;;;;;;;14.25;13.00;;;;;;;;5032377;28;10584;-76
2023/10/18 07:02:45;;;;;;;;;12.50;12.50;;;;;;;;5030068;28;10654;-77
2023/10/18 07:05:12;;;;;;;;;10.75;10.75;;;;;;;;5028841;28;10511;-80
2023/10/18 07:07:42;;;;;;;;;12.50;11.25;;;;;;;;5030039;28;10583;-78
2023/10/18 07:10:52;;;;;;;;;15.00;14.00;;;;;;;;5030308;28;10529;-76
2023/10/18 07:13:07;;;;;;;;;12.75;10.50;;;;;;;;5030788;28;10582;-77
2023/10/18 07:15:35;;;;;;;;;11.50;11.50;;;;;;;;5030223;28;10712;-77
2023/10/18 07:18:09;;;;;;;;;13.75;13.00;;;;;;;;5030060;28;10591;-79
2023/10/18 07:20:39;;;;;;;;;13.75;12.50;;;;;;;;5029704;28;10988;-78
2023/10/18 07:23:10;;;;;;;;;12.00;12.00;;;;;;;;5030321;28;10797;-75
2023/10/18 07:25:41;;;;;;;;;12.50;11.00;;;;;;;;5030077;28;10694;-76
2023/10/18 07:28:09;;;;;;;;;12.50;12.00;;;;;;;;5030633;28;10571;-76
2023/10/18 07:30:38;;;;;;;;;16.25;12.50;;;;;;;;5028854;28;11458;-77
2023/10/18 07:33:09;;;;;;;;;14.75;13.50;;;;;;;;5029302;28;10764;-78
2023/10/18 07:35:39;;;;;;;;;16.50;13.25;;;;;;;;5029893;28;10675;-82
2023/10/18 07:38:07;;;;;;;;;13.25;11.50;;;;;;;;5030260;28;10706;-76
2023/10/18 07:40:40;;;;;;;;;14.00;14.00;;;;;;;;5032649;28;10710;-81
2023/10/18 07:43:12;;;;;;;;;15.50;12.75;;;;;;;;5033694;28;10569;-80
2023/10/18 07:45:40;;;;;;;;;12.50;12.00;;;;;;;;5030065;28;10435;-75
2023/10/18 07:48:11;;;;;;;;;13.50;13.50;;;;;;;;5029317;28;11354;-74
2023/10/18 07:50:49;;;;;;;;;12.25;12.00;;;;;;;;5029630;28;10482;-76
2023/10/18 07:53:20;;;;;;;;;10.00;10.00;;;;;;;;5029226;28;10525;-77
2023/10/18 07:55:51;;;;;;;;;12.00;11.00;;;;;;;;5042117;28;10495;-78
2023/10/18 07:58:22;;;;;;;;;15.50;14.25;;;;;;;;5028817;28;10272;-81
2023/10/18 08:03:31;;;;;;;;;10.50;8.00;;;;;;;;5029613;28;10449;-83
2023/10/18 08:05:59;;;;;;;;;11.50;11.50;;;;;;;;5030499;28;10441;-75
2023/10/18 08:08:27;;;;;;;;;12.50;10.25;;;;;;;;5031029;28;10377;-73
2023/10/18 08:10:55;;;;;;;;;13.50;11.75;;;;;;;;5029515;28;10335;-77
2023/10/18 08:13:27;;;;;;;;;13.00;13.00;;;;;;;;5028480;28;10400;-76
2023/10/18 08:15:56;;;;;;;;;8.50;8.50;;;;;;;;5027940;28;10848;-73
2023/10/18 08:18:39;;;;;;;;;10.50;10.50;;;;;;;;5029082;28;10126;-73
2023/10/18 08:21:07;;;;;;;;;13.00;13.00;;;;;;;;5017311;28;9961;-82
2023/10/18 08:23:38;;;;;;;;;10.00;8.00;;;;;;;;5028310;28;10049;-79
2023/10/18 08:26:06;;;;;;;;;10.75;10.75;;;;;;;;5029188;28;9816;-79
2023/10/18 08:28:40;;;;;;;;;13.75;10.50;;;;;;;;5029684;28;9963;-78
2023/10/18 08:31:26;;;;;;;;;14.75;11.00;;;;;;;;5039554;28;9814;-75
2023/10/18 08:33:57;;;;;;;;;11.25;10.00;;;;;;;;5029255;28;10009;-73
2023/10/18 08:36:32;;;;;;;;;11.00;11.00;;;;;;;;5031221;28;9785;-73
2023/10/18 08:39:01;;;;;;;;;10.75;10.75;;;;;;;;5019328;28;9712;-74
2023/10/18 08:41:36;;;;;;;;;8.50;8.50;;;;;;;;5031545;28;9896;-75
2023/10/18 08:44:18;;;;;;;;;11.00;11.00;;;;;;;;5032416;28;9569;-73
2023/10/18 08:46:55;;;;;;;;;10.50;10.50;;;;;;;;5032989;28;9523;-80
2023/10/18 08:49:23;;;;;;;;;10.00;10.00;;;;;;;;5028010;28;9582;-73
2023/10/18 08:51:56;;;;;;;;;11.00;9.33;;;;;;;;5028102;28;9544;-75
2023/10/18 08:54:30;;;;;;;;;8.67;8.33;;;;;;;;5028182;28;9263;-75
2023/10/18 08:56:59;;;;;;;;;10.33;10.00;;;;;;;;5027926;28;9286;-73
2023/10/18 08:59:29;;;;;;;;;7.33;7.33;;;;;;;;5028670;28;9106;-79
2023/10/18 09:02:12;;;;;;;;;10.00;10.00;;;;;;;;5027945;28;9158;-75
2023/10/18 09:04:44;;;;;;;;;9.00;9.00;;;;;;;;5027685;28;9027;-76
2023/10/18 09:07:21;;;;;;;;;8.00;8.00;;;;;;;;5028274;28;8964;-81
2023/10/18 09:09:56;;;;;;;;;9.00;9.00;;;;;;;;5018268;28;8970;-82
2023/10/18 09:12:35;;;;;;;;;7.25;7.25;;;;;;;;5027129;28;9436;-74
2023/10/18 09:17:46;;;;;;;;;6.25;6.25;;;;;;;;5015106;28;8955;-77
2023/10/18 09:20:15;;;;;;;;;7.50;7.50;;;;;;;;5026819;28;8856;-73
2023/10/18 09:22:45;;;;;;;;;8.00;8.00;;;;;;;;5027877;28;8848;-73
2023/10/18 09:25:13;;;;;;;;;9.25;9.25;;;;;;;;5027284;28;8871;-78
2023/10/18 09:27:40;;;;;;;;;9.00;7.50;;;;;;;;5028089;28;8855;-76
2023/10/18 09:30:18;;;;;;;;;8.50;8.50;;;;;;;;5026851;28;8875;-74
2023/10/18 09:32:46;;;;;;;;;9.25;8.50;;;;;;;;5027594;28;8859;-73
2023/10/18 09:35:14;;;;;;;;;8.50;8.50;;;;;;;;5026847;28;8866;-73
2023/10/18 09:37:42;;;;;;;;;9.50;9.50;;;;;;;;5027696;28;8851;-74
2023/10/18 09:40:12;;;;;;;;;8.00;8.00;;;;;;;;5027083;28;8856;-78
2023/10/18 09:42:39;;;;;;;;;8.75;8.25;;;;;;;;5027973;28;9623;-73
2023/10/18 09:45:09;;;;;;;;;9.00;7.50;;;;;;;;5026874;28;8941;-76
2023/10/18 09:47:37;;;;;;;;;8.00;8.00;;;;;;;;5027360;28;8848;-77
2023/10/18 09:50:08;;;;;;;;;7.50;7.50;;;;;;;;5026876;28;8902;-73
2023/10/18 09:52:47;;;;;;;;;9.00;9.00;;;;;;;;5027465;28;8882;-73
2023/10/18 09:55:20;;;;;;;;;7.75;7.50;;;;;;;;5015736;28;9639;-73
2023/10/18 09:57:59;;;;;;;;;8.75;8.75;;;;;;;;5026711;28;8930;-73
2023/10/18 10:00:36;;;;;;;;;7.50;7.50;;;;;;;;5026695;28;9535;-75
2023/10/18 10:03:10;;;;;;;;;6.50;6.50;;;;;;;;5026756;28;9305;-74
2023/10/18 10:05:44;;;;;;;;;8.00;8.00;;;;;;;;5027418;28;8860;-76
2023/10/18 10:08:12;;;;;;;;;8.50;8.50;;;;;;;;5015808;28;9670;-75
2023/10/18 10:10:44;;;;;;;;;7.00;7.00;;;;;;;;5027336;28;8883;-73
2023/10/18 10:13:18;;;;;;;;;8.00;8.00;;;;;;;;5027751;28;8876;-74
2023/10/18 10:15:48;;;;;;;;;8.25;7.00;;;;;;;;5028658;28;8864;-74
2023/10/18 10:18:16;;;;;;;;;7.50;7.50;;;;;;;;5028257;28;8860;-73
2023/10/18 10:20:46;;;;;;;;;8.75;7.00;;;;;;;;5028681;28;8875;-73
2023/10/18 10:23:15;;;;;;;;;6.00;6.00;;;;;;;;5029539;28;8855;-74
2023/10/18 10:25:49;;;;;;;;;9.75;9.75;;;;;;;;5029813;28;8938;-74
2023/10/18 10:31:56;;;;;;;;;8.00;8.00;;;;;;;;5098673;27;13511;-73
2023/10/18 10:34:32;;;;;;;;;9.00;7.75;;;;;;;;5074999;28;8857;-74
2023/10/18 10:37:09;;;;;;;;;9.50;7.50;;;;;;;;5082888;28;8868;-77
2023/10/18 10:39:43;;;;;;;;;8.00;8.00;;;;;;;;5084561;28;8835;-74
2023/10/18 10:42:28;;;;;;;;;7.25;7.25;;;;;;;;5074087;28;9630;-74
2023/10/18 10:45:09;;;;;;;;;9.00;9.00;;;;;;;;5084020;28;8850;-74
2023/10/18 10:47:44;;;;;;;;;6.75;6.75;;;;;;;;5072696;28;8853;-74
2023/10/18 10:50:12;;;;;;;;;8.00;8.00;;;;;;;;5084091;28;8981;-75
2023/10/18 10:52:44;;;;;;;;;10.25;8.25;;;;;;;;5084315;28;8855;-74
2023/10/18 10:55:21;;;;;;;;;7.00;7.00;;;;;;;;5084627;28;8851;-77
2023/10/18 10:57:50;;;;;;;;;7.25;7.25;;;;;;;;5083789;28;8871;-74
2023/10/18 11:03:31;;;;;;;;;7.25;7.00;;;;;;;;5082508;28;9052;-75
2023/10/18 11:05:59;;;;;;;;;8.00;7.00;;;;;;;;5076807;28;8878;-75
2023/10/18 11:08:28;;;;;;;;;7.50;7.50;;;;;;;;5084297;28;8923;-79
2023/10/18 11:10:57;;;;;;;;;8.00;8.00;;;;;;;;5080040;28;9011;-75
2023/10/18 11:13:25;;;;;;;;;7.00;7.00;;;;;;;;5067432;28;8849;-80
2023/10/18 11:15:53;;;;;;;;;8.50;8.50;;;;;;;;5078573;28;8883;-77
2023/10/18 11:18:23;;;;;;;;;5.75;4.75;;;;;;;;5078171;28;8859;-75
2023/10/18 11:21:18;;;;;;;;;8.25;8.00;;;;;;;;5083638;28;8854;-74
2023/10/18 11:23:46;;;;;;;;;8.25;8.25;;;;;;;;5080468;28;8919;-76
2023/10/18 11:26:19;;;;;;;;;6.00;6.00;;;;;;;;5076817;28;8846;-75
2023/10/18 11:28:47;;;;;;;;;9.25;7.75;;;;;;;;5080772;28;8866;-76
2023/10/18 11:31:15;;;;;;;;;7.50;7.50;;;;;;;;5071987;28;8795;-74
2023/10/18 11:33:54;;;;;;;;;6.25;6.25;;;;;;;;5057631;28;8875;-73
2023/10/18 11:36:27;;;;;;;;;6.00;6.00;;;;;;;;5059753;28;9664;-76
2023/10/18 11:41:44;;;;;;;;;9.75;8.25;;;;;;;;5047167;28;8849;-74
2023/10/18 11:44:16;;;;;;;;;11.50;10.50;;;;;;;;5044262;28;8929;-76
2023/10/18 11:46:50;;;;;;;;;8.75;8.75;;;;;;;;5034687;28;8857;-77
2023/10/18 11:49:20;;;;;;;;;9.75;9.75;;;;;;;;5042940;28;8855;-79
2023/10/18 11:51:50;;;;;;;;;9.00;9.00;;;;;;;;5048966;28;8889;-73
2023/10/18 11:54:40;;;;;;;;;9.50;8.00;;;;;;;;5048929;28;9739;-76
2023/10/18 11:57:25;;;;;;;;;10.50;8.75;;;;;;;;5040726;28;8862;-74
2023/10/18 11:59:54;;;;;;;;;8.00;8.00;;;;;;;;5048991;28;8843;-76
2023/10/18 12:02:25;;;;;;;;;9.00;8.00;;;;;;;;5049617;28;8938;-75
2023/10/18 12:04:52;;;;;;;;;6.75;6.75;;;;;;;;5038569;28;8863;-75
2023/10/18 12:07:22;;;;;;;;;7.00;7.00;;;;;;;;5051254;28;8863;-76
2023/10/18 12:09:52;;;;;;;;;10.00;8.00;;;;;;;;5052570;28;9664;-78
2023/10/18 12:12:24;;;;;;;;;8.75;8.00;;;;;;;;5051800;28;8851;-79
2023/10/18 12:14:51;;;;;;;;;7.50;7.50;;;;;;;;5053814;28;8897;-79
2023/10/18 12:17:18;;;;;;;;;6.75;6.75;;;;;;;;5053108;28;8855;-80
2023/10/18 12:19:46;;;;;;;;;8.00;6.25;;;;;;;;5049162;28;9670;-79
2023/10/18 12:22:15;;;;;;;;;8.00;8.00;;;;;;;;5048004;28;9622;-75
2023/10/18 12:24:44;;;;;;;;;7.75;7.75;;;;;;;;5049267;28;8851;-79
2023/10/18 12:27:21;;;;;;;;;6.75;6.75;;;;;;;;5047728;28;8916;-81
2023/10/18 12:29:51;;;;;;;;;6.75;6.50;;;;;;;;5052449;28;8870;-84
2023/10/18 12:32:23;;;;;;;;;9.50;8.25;;;;;;;;5047017;28;8803;-84
2023/10/18 12:34:56;;;;;;;;;20.00;16.75;;;;;;;;5048879;28;8859;-81
2023/10/18 12:37:24;;;;;;;;;22.75;21.50;;;;;;;;5042246;28;8851;-81
2023/10/18 12:39:57;;;;;;;;;18.50;18.50;;;;;;;;5047320;28;8869;-80
2023/10/18 12:42:32;;;;;;;;;15.00;15.00;;;;;;;;5048177;28;8847;-80
2023/10/18 12:45:08;;;;;;;;;9.50;9.50;;;;;;;;5045749;28;8859;-83
2023/10/18 12:47:37;;;;;;;;;8.25;8.25;;;;;;;;5038065;28;8873;-82
2023/10/18 12:50:05;;;;;;;;;8.50;8.50;;;;;;;;5047463;28;9005;-79
2023/10/18 12:52:42;;;;;;;;;7.00;7.00;;;;;;;;5048867;28;8865;-79
2023/10/18 12:57:54;;;;;;;;;9.75;8.00;;;;;;;;5045910;28;9618;-80
2023/10/18 13:00:23;;;;;;;;;8.50;8.50;;;;;;;;5048166;28;8874;-78
2023/10/18 13:03:15;;;;;;;;;9.00;9.00;;;;;;;;5048545;28;8867;-78
2023/10/18 13:05:41;;;;;;;;;9.50;7.50;;;;;;;;5035096;28;8866;-79
2023/10/18 13:08:16;;;;;;;;;10.75;10.75;;;;;;;;5037820;28;9308;-79
2023/10/18 13:10:48;;;;;;;;;10.75;10.50;;;;;;;;5045908;28;8869;-79
2023/10/18 13:13:16;;;;;;;;;11.25;11.25;;;;;;;;5038886;28;8851;-79
2023/10/18 13:15:47;;;;;;;;;11.25;10.50;;;;;;;;5048490;28;8827;-78
2023/10/18 13:18:15;;;;;;;;;9.75;9.75;;;;;;;;5048955;28;8866;-79
2023/10/18 13:20:44;;;;;;;;;11.75;11.75;;;;;;;;5044368;28;9008;-78
2023/10/18 13:23:18;;;;;;;;;15.75;12.50;;;;;;;;5041305;28;9654;-79
2023/10/18 13:25:53;;;;;;;;;12.00;11.00;;;;;;;;5048534;28;8962;-80
2023/10/18 13:28:33;;;;;;;;;11.50;11.50;;;;;;;;5048076;28;8861;-79
2023/10/18 13:31:04;;;;;;;;;11.00;11.00;;;;;;;;5043801;28;9638;-79
2023/10/18 13:33:33;;;;;;;;;10.00;10.00;;;;;;;;5061337;28;8881;-79
2023/10/18 13:36:02;;;;;;;;;11.00;11.00;;;;;;;;5047994;28;8865;-77
2023/10/18 13:38:29;;;;;;;;;9.75;8.25;;;;;;;;5037723;28;8926;-78
2023/10/18 13:41:03;;;;;;;;;10.00;10.00;;;;;;;;5036438;28;8849;-78
2023/10/18 13:43:35;;;;;;;;;11.50;10.50;;;;;;;;5041965;28;8866;-80
2023/10/18 13:46:08;;;;;;;;;10.25;8.75;;;;;;;;5043204;28;8889;-78
2023/10/18 13:48:38;;;;;;;;;10.00;9.75;;;;;;;;5036778;28;8855;-80
2023/10/18 13:51:05;;;;;;;;;11.75;10.00;;;;;;;;5050097;28;8855;-80
2023/10/18 13:53:36;;;;;;;;;13.25;13.25;;;;;;;;5051917;28;8874;-74
2023/10/18 13:56:06;;;;;;;;;12.50;10.75;;;;;;;;5050360;28;8858;-77
2023/10/18 13:58:33;;;;;;;;;13.25;12.75;;;;;;;;5050997;28;8960;-76
2023/10/18 14:01:05;;;;;;;;;12.25;12.25;;;;;;;;5049910;28;8819;-77
2023/10/18 14:03:32;;;;;;;;;10.50;8.75;;;;;;;;5048706;28;8936;-79
2023/10/18 14:06:00;;;;;;;;;10.25;10.25;;;;;;;;5046185;28;8867;-79
2023/10/18 14:08:28;;;;;;;;;16.00;14.75;;;;;;;;5047389;28;8973;-78
2023/10/18 14:10:55;;;;;;;;;17.00;17.00;;;;;;;;5045923;28;8855;-76
2023/10/18 14:13:27;;;;;;;;;13.00;13.00;;;;;;;;5047481;28;8843;-76
2023/10/18 14:15:54;;;;;;;;;13.25;11.50;;;;;;;;5047039;28;8843;-80
2023/10/18 14:18:25;;;;;;;;;4.25;2.50;;;;;;;;5047745;28;8871;-81
2023/10/18 14:20:52;;;;;;;;;10.50;10.50;;;;;;;;5046825;28;8847;-81
2023/10/18 14:23:26;;;;;;;;;13.25;11.75;;;;;;;;5047383;28;9598;-80
2023/10/18 14:25:54;;;;;;;;;10.75;9.25;;;;;;;;5035139;28;8985;-79
2023/10/18 14:28:27;;;;;;;;;13.25;11.50;;;;;;;;5046219;28;8854;-79
2023/10/18 14:30:59;;;;;;;;;19.25;18.75;;;;;;;;5045838;28;8779;-81
2023/10/18 14:33:32;;;;;;;;;13.25;13.25;;;;;;;;5047290;28;8960;-79
2023/10/18 14:36:13;;;;;;;;;14.75;14.50;;;;;;;;5045746;28;8972;-78
2023/10/18 14:38:40;;;;;;;;;15.75;15.00;;;;;;;;5045903;28;8847;-81
2023/10/18 14:41:13;;;;;;;;;14.75;13.25;;;;;;;;5047349;28;10088;-81
2023/10/18 14:43:44;;;;;;;;;19.00;19.00;;;;;;;;5047261;28;8867;-84
2023/10/18 14:46:22;;;;;;;;;10.25;9.25;;;;;;;;5045504;28;8878;-83
2023/10/18 14:48:58;;;;;;;;;17.00;17.00;;;;;;;;5035760;28;8855;-75
2023/10/18 14:51:26;;;;;;;;;11.50;9.50;;;;;;;;5046907;28;8871;-79
2023/10/18 14:53:57;;;;;;;;;14.50;12.00;;;;;;;;5047295;28;8981;-75
2023/10/18 14:56:31;;;;;;;;;33.00;31.50;;;;;;;;5044117;28;8907;-78
2023/10/18 14:59:04;;;;;;;;;11.75;11.75;;;;;;;;5028093;28;8845;-76
2023/10/18 15:01:34;;;;;;;;;14.25;13.75;;;;;;;;5046181;28;8934;-77
2023/10/18 15:04:07;;;;;;;;;10.50;10.25;;;;;;;;5046504;28;8863;-74
2023/10/18 15:06:52;;;;;;;;;6.50;6.25;;;;;;;;5047183;28;8843;-77
2023/10/18 15:09:20;;;;;;;;;22.25;21.00;;;;;;;;5042602;28;9679;-78
2023/10/18 15:11:49;;;;;;;;;16.25;14.25;;;;;;;;5038681;28;8855;-79
2023/10/18 15:14:21;;;;;;;;;8.25;8.00;;;;;;;;5034716;28;8983;-78
2023/10/18 15:16:51;;;;;;;;;13.00;13.00;;;;;;;;5049032;28;8851;-75
2023/10/18 15:19:21;;;;;;;;;7.75;7.75;;;;;;;;5051360;28;9015;-79
2023/10/18 15:21:49;;;;;;;;;6.75;6.25;;;;;;;;5038672;28;8981;-76